Latest Weather Observations for Yulara

IDD60801

Issued at 2:21 pm CST Monday 23 September 2019 (issued every 10 minutes, with the page automatically refreshed every 10 minutes)

About weather observations | Map of weather stations | Latest weather observations for NT | Other Formats
Station Details ID: 015635 Name: YULARA AIRPORT Lat: -25.19 Lon: 130.97 Height: 492.0 m
Data from the previous 72 hours. | See also: Recent months at Yulara
Date/Time
CST
Temp
°C
App
Temp
°C
Dew
Point
°C
Rel
Hum
%
Delta-T
°C
Wind Press
QNH
hPa
Press
MSL
hPa
Rain since
9am
mm
Dir  Spd
km/h
Gust
km/h
Spd
kts
Gust
kts
23/02:00pm 21.8 14.3 -4.3 17 11.0 E 26 41 14 22 1027.0 1025.4 0.0
23/01:30pm 21.6 14.6 -3.7 18 10.7 E 24 35 13 19 1027.8 1026.1 0.0
23/01:00pm 21.4 14.4 -3.9 18 10.8 ENE 24 37 13 20 1028.5 1026.8 0.0
23/12:30pm 21.1 13.0 -3.4 19 10.4 E 30 39 16 21 1028.7 1027.0 0.0
23/12:00pm 19.2 10.7 -3.6 21 9.5 ENE 32 41 17 22 1028.6 1026.9 0.0
23/11:30am 18.8 9.7 -4.0 21 9.4 ENE 35 44 19 24 1029.3 1027.7 0.0
23/11:00am 19.0 10.4 -3.8 21 9.5 ENE 32 41 17 22 1029.4 1027.8 0.0
23/10:30am 18.5 10.0 -3.6 22 9.1 E 32 39 17 21 1029.4 1027.8 0.0
23/10:00am 18.6 10.1 -3.5 22 9.2 E 32 41 17 22 1029.0 1027.4 0.0
23/09:30am 17.5 10.1 -3.8 23 8.7 E 26 37 14 20 1028.7 1027.0 0.0
23/09:00am 16.8 9.8 -3.9 24 8.4 E 24 33 13 18 1029.0 1027.4 0.0
23/08:30am 16.4 10.3 -4.2 24 8.2 ESE 19 26 10 14 1028.8 1027.2 0.0
23/08:00am 15.5 9.2 -4.4 25 7.9 ESE 20 28 11 15 1028.0 1026.3 0.0
23/07:30am 14.7 8.9 -4.6 26 7.5 SE 17 20 9 11 1028.1 1026.4 0.0
23/07:00am 13.7 8.3 -4.5 28 7.1 SSE 15 19 8 10 1027.7 1026.0 0.0
23/06:30am 13.8 8.4 -4.8 27 7.1 SE 15 19 8 10 1027.2 1025.6 0.0
23/06:00am 13.9 8.1 -4.8 27 7.2 SE 17 22 9 12 1026.7 1025.0 0.0
23/05:30am 14.2 8.8 -4.5 27 7.3 SE 15 20 8 11 1026.4 1024.7 0.0
23/05:00am 14.2 9.6 -4.5 27 7.3 SE 11 15 6 8 1026.5 1024.8 0.0
23/04:30am 14.0 9.0 -4.2 28 7.1 SE 13 17 7 9 1026.0 1024.3 0.0
23/04:00am 14.4 9.0 -4.3 27 7.4 ESE 15 20 8 11 1025.5 1023.8 0.0
23/03:30am 14.5 9.5 -4.2 27 7.3 ESE 13 19 7 10 1025.8 1024.1 0.0
23/03:00am 14.4 9.8 -4.3 27 7.3 ESE 11 17 6 9 1026.3 1024.6 0.0
23/02:30am 14.3 9.2 -4.9 26 7.4 SE 13 15 7 8 1026.2 1024.5 0.0
23/02:00am 14.6 9.9 -4.7 26 7.5 SE 11 15 6 8 1026.7 1025.0 0.0
23/01:30am 15.0 9.2 -4.8 25 7.7 SE 17 20 9 11 1026.4 1024.7 0.0
23/01:00am 15.0 9.9 -5.4 24 7.9 SE 13 17 7 9 1027.1 1025.5 0.0
23/12:30am 15.2 10.5 -5.2 24 7.9 SE 11 13 6 7 1027.7 1026.0 0.0
23/12:00am 16.0 10.9 -5.1 23 8.2 SE 13 15 7 8 1027.3 1025.7 0.0
 
Date/Time
CST
Temp
°C
App
Temp
°C
Dew
Point
°C
Rel
Hum
%
Delta-T
°C
Wind Press
QNH
hPa
Press
MSL
hPa
Rain since
9am
mm
Dir  Spd
km/h
Gust
km/h
Spd
kts
Gust
kts
22/11:30pm 17.0 12.3 -5.5 21 8.8 SSE 11 13 6 7 1027.7 1026.0 0.0
22/11:00pm 18.2 13.5 -5.1 20 9.4 E 11 13 6 7 1028.1 1026.4 0.0
22/10:30pm 18.5 14.5 -5.5 19 9.5 E 7 9 4 5 1028.1 1026.4 0.0
22/10:00pm 18.4 14.0 -5.6 19 9.6 ENE 9 13 5 7 1027.8 1026.1 0.0
22/09:30pm 19.3 13.8 -5.6 18 10.0 E 15 17 8 9 1027.2 1025.6 0.0
22/09:00pm 19.7 14.2 -5.3 18 10.1 E 15 20 8 11 1026.8 1025.1 0.0
22/08:30pm 19.9 14.0 -5.8 17 10.3 E 17 20 9 11 1026.2 1024.5 0.0
22/08:00pm 19.9 15.0 -6.6 16 10.5 E 11 13 6 7 1026.3 1024.6 0.0
22/07:30pm 20.6 15.8 -6.1 16 10.7 E 11 15 6 8 1026.0 1024.3 0.0
22/07:00pm 21.2 16.0 -6.4 15 11.1 E 13 19 7 10 1025.3 1023.7 0.0
22/06:30pm 22.0 15.6 -6.7 14 11.6 E 19 24 10 13 1024.8 1023.1 0.0
22/06:00pm 22.5 16.5 -6.3 14 11.7 ENE 17 24 9 13 1024.5 1022.8 0.0
22/05:30pm 22.8 15.5 -6.1 14 11.9 ENE 24 33 13 18 1024.3 1022.6 0.0
22/05:00pm 23.2 16.3 -5.7 14 12.1 ENE 22 30 12 16 1024.3 1022.6 0.0
22/04:30pm 23.3 16.9 -6.6 13 12.2 E 19 28 10 15 1024.1 1022.4 0.0
22/04:00pm 23.2 17.2 -6.7 13 12.2 E 17 28 9 15 1024.3 1022.6 0.0
22/03:30pm 23.0 17.4 -6.9 13 12.1 E 15 28 8 15 1024.6 1022.9 0.0
22/03:00pm 23.0 17.1 -5.9 14 11.9 E 17 32 9 17 1024.7 1023.0 0.0
22/02:30pm 22.0 16.5 -5.8 15 11.4 ESE 15 28 8 15 1025.0 1023.3 0.0
22/02:00pm 23.2 17.0 -4.8 15 11.9 SE 19 33 10 18 1025.2 1023.6 0.0
22/01:30pm 22.2 15.1 -4.8 16 11.3 ESE 24 37 13 20 1025.7 1024.0 0.0
22/01:00pm 21.0 14.2 -4.9 17 10.8 E 22 35 12 19 1026.3 1024.6 0.0
22/12:30pm 20.5 14.2 -3.9 19 10.2 ESE 20 32 11 17 1026.6 1024.9 0.0
22/12:05pm 20.1 12.6 -4.2 19 10.1 E 26 56 14 30 1027.1 1025.5 0.0
22/12:00pm 20.2 12.7 -4.1 19 10.1 E 26 37 14 20 1027.1 1025.5 0.0
22/11:30am 18.6 11.6 -3.5 22 9.2 ESE 24 32 13 17 1027.4 1025.8 0.0
22/11:00am 18.5 11.1 -3.6 22 9.2 ESE 26 39 14 21 1027.7 1026.0 0.0
22/10:30am 17.6 9.9 -3.2 24 8.6 E 28 41 15 22 1027.9 1026.2 0.0
22/10:00am 16.7 9.4 -2.9 26 8.1 ESE 26 37 14 20 1028.1 1026.4 0.0
22/09:30am 15.9 8.6 -2.6 28 7.6 ESE 26 35 14 19 1028.0 1026.3 0.0
22/09:00am 14.4 6.8 -2.1 32 6.8 ESE 28 39 15 21 1028.0 1026.3 0.0
22/08:30am 13.1 5.1 -2.4 34 6.2 ESE 30 39 16 21 1027.8 1026.1 0.0
22/08:00am 12.1 4.9 -1.8 38 5.6 ESE 26 35 14 19 1027.6 1025.9 0.0
22/07:30am 8.8 3.1 -3.4 42 4.6 SE 17 22 9 12 1027.1 1025.5 0.0
22/07:00am 6.9 1.8 -4.8 43 4.2 SE 13 17 7 9 1026.7 1025.0 0.0
22/06:30am 6.8 0.9 -5.2 42 4.2 SE 17 19 9 10 1026.3 1024.6 0.0
22/06:00am 7.2 1.3 -5.8 39 4.5 SE 17 20 9 11 1026.0 1024.3 0.0
22/05:30am 7.4 1.8 -6.3 37 4.7 SE 15 20 8 11 1025.6 1023.9 0.0
22/05:00am 7.8 2.1 -7.1 34 5.1 SE 15 19 8 10 1025.0 1023.3 0.0
22/04:30am 8.8 2.8 -6.6 33 5.3 SE 17 20 9 11 1024.6 1022.9 0.0
22/04:00am 9.4 3.4 -6.4 32 5.6 SE 17 20 9 11 1024.5 1022.8 0.0
22/03:30am 9.8 3.8 -6.5 31 5.8 SSE 17 20 9 11 1024.2 1022.5 0.0
22/03:00am 9.2 4.8 -6.2 33 5.4 SSE 9 15 5 8 1024.3 1022.6 0.0
22/02:30am 8.9 4.4 -6.9 32 5.5 SSE 9 13 5 7 1024.3 1022.6 0.0
22/02:00am 9.3 4.4 -6.9 31 5.7 SSE 11 13 6 7 1024.2 1022.5 0.0
22/01:30am 9.5 5.0 -6.8 31 5.7 SSE 9 15 5 8 1024.3 1022.6 0.0
22/01:00am 10.3 5.9 -6.1 31 5.9 SSE 9 13 5 7 1024.4 1022.7 0.0
22/12:30am 9.4 4.9 -6.8 31 5.6 SSE 9 13 5 7 1024.4 1022.7 0.0
22/12:00am 10.0 5.2 -6.3 31 5.8 SSE 11 13 6 7 1024.3 1022.6 0.0
 
Date/Time
CST
Temp
°C
App
Temp
°C
Dew
Point
°C
Rel
Hum
%
Delta-T
°C
Wind Press
QNH
hPa
Press
MSL
hPa
Rain since
9am
mm
Dir  Spd
km/h
Gust
km/h
Spd
kts
Gust
kts
21/11:30pm 11.0 5.8 -6.3 29 6.2 SSE 13 15 7 8 1024.2 1022.5 0.0
21/11:00pm 12.0 7.5 -6.4 27 6.7 ESE 9 11 5 6 1024.3 1022.6 0.0
21/10:30pm 12.8 8.4 -6.2 26 7.0 ESE 9 11 5 6 1024.3 1022.6 0.0
21/10:00pm 13.0 8.5 -6.5 25 7.2 ESE 9 11 5 6 1024.4 1022.7 0.0
21/09:30pm 13.7 9.2 -6.5 24 7.5 SE 9 11 5 6 1024.2 1022.5 0.0
21/09:00pm 15.6 10.8 -6.0 22 8.3 E 11 13 6 7 1024.0 1022.3 0.0
21/08:30pm 16.0 11.6 -5.7 22 8.4 ESE 9 11 5 6 1023.7 1022.0 0.0
21/08:00pm 16.5 12.1 -5.9 21 8.7 E 9 13 5 7 1023.1 1021.4 0.0
21/07:30pm 16.8 12.4 -6.3 20 8.9 SE 9 11 5 6 1022.6 1020.9 0.0
21/07:00pm 18.3 14.2 -6.4 18 9.7 ESE 7 11 4 6 1022.4 1020.7 0.0
21/06:30pm 19.3 13.8 -5.6 18 10.0 ESE 15 20 8 11 1021.9 1020.2 0.0
21/06:00pm 19.9 14.0 -5.8 17 10.3 ESE 17 22 9 12 1021.7 1020.0 0.0
21/05:30pm 20.1 14.6 -5.7 17 10.4 E 15 20 8 11 1021.7 1020.0 0.0
21/05:00pm 20.7 15.6 -5.2 17 10.7 E 13 20 7 11 1021.5 1019.7 0.0
21/04:30pm 20.2 14.3 -5.6 17 10.4 SSE 17 26 9 14 1021.5 1019.7 0.0
21/04:00pm 20.1 14.7 -4.9 18 10.3 ESE 15 30 8 16 1021.5 1019.7 0.0
21/03:30pm 20.0 15.8 -4.3 19 10.1 SE 9 24 5 13 1021.7 1020.0 0.0
21/03:00pm 20.3 14.6 -4.0 19 10.2 E 17 26 9 14 1022.0 1020.3 0.0
21/02:30pm 18.5 13.1 -4.9 20 9.4 ESE 15 24 8 13 1022.2 1020.5 0.0
21/02:00pm 18.4 13.0 -4.3 21 9.3 ESE 15 32 8 17 1022.7 1021.0 0.0
21/01:30pm 17.8 11.5 -4.2 22 8.9 SE 20 30 11 16 1023.3 1021.5 0.0
21/01:00pm 17.4 11.3 -3.9 23 8.7 ESE 19 30 10 16 1023.7 1022.0 0.0
21/12:30pm 17.4 12.1 -3.4 24 8.6 E 15 28 8 15 1024.1 1022.4 0.0
21/12:00pm 16.0 9.4 -3.5 26 7.9 SE 22 33 12 18 1024.4 1022.7 0.0
21/11:30am 15.2 9.1 -3.6 27 7.5 ESE 19 30 10 16 1024.5 1022.8 0.0
21/11:00am 15.5 9.3 -2.9 28 7.5 ESE 20 33 11 18 1024.6 1022.9 0.0
21/10:30am 14.8 8.7 -2.6 30 7.1 ESE 20 33 11 18 1025.2 1023.6 0.0
21/10:00am 13.6 7.1 -2.8 32 6.6 ESE 22 28 12 15 1025.5 1023.8 0.0
21/09:30am 13.7 6.9 -1.5 35 6.3 ESE 24 35 13 19 1025.7 1024.0 0.0
21/09:00am 12.5 6.0 -2.5 35 6.0 ESE 22 32 12 17 1025.6 1023.9 0.0
21/08:30am 11.1 4.5 -3.4 36 5.6 SE 22 33 12 18 1025.2 1023.6 0.0
21/08:00am 10.6 5.4 -3.1 38 5.3 SE 15 22 8 12 1024.9 1023.2 0.0
21/07:30am 7.9 3.0 -3.3 45 4.2 S 13 15 7 8 1024.4 1022.7 0.0
21/07:00am 4.4 -1.1 -5.1 50 3.3 S 15 20 8 11 1024.0 1022.3 0.0
21/06:30am 3.8 -0.9 -5.1 52 3.0 S 11 13 6 7 1023.5 1021.8 0.0
21/06:00am 3.4 -1.0 -5.8 51 3.0 S 9 11 5 6 1023.3 1021.5 0.0
21/05:30am 3.6 -0.4 -5.6 51 3.1 S 7 9 4 5 1022.5 1020.8 0.0
21/05:00am 2.8 -1.1 -6.6 50 3.2 S 6 7 3 4 1021.9 1020.2 0.0
21/04:30am 4.8 0.5 -5.0 49 3.4 S 9 11 5 6 1021.6 1019.8 0.0
21/04:00am 4.1 -0.3 -5.9 48 3.3 S 9 11 5 6 1021.4 1019.6 0.0
21/03:30am 5.9 2.0 -4.3 48 3.6 S 7 11 4 6 1021.3 1019.5 0.0
21/03:00am 6.3 2.0 -4.4 46 3.8 S 9 11 5 6 1021.3 1019.5 0.0
21/02:30am 6.9 3.2 -4.2 45 4.0 S 6 7 3 4 1021.2 1019.4 0.0
21/02:00am 7.6 3.4 -4.2 43 4.3 S 9 11 5 6 1021.1 1019.3 0.0
21/01:30am 8.4 3.8 -3.7 42 4.5 S 11 13 6 7 1021.1 1019.3 0.0
21/01:00am 9.3 4.4 -3.3 41 4.8 S 13 17 7 9 1021.3 1019.5 0.0
21/12:30am 9.6 5.1 -3.0 41 4.8 S 11 15 6 8 1021.3 1019.5 0.0
21/12:00am 10.0 5.6 -2.3 42 4.8 S 11 15 6 8 1021.3 1019.5 0.0
 
Date/Time
CST
Temp
°C
App
Temp
°C
Dew
Point
°C
Rel
Hum
%
Delta-T
°C
Wind Press
QNH
hPa
Press
MSL
hPa
Rain since
9am
mm
Dir  Spd
km/h
Gust
km/h
Spd
kts
Gust
kts
20/11:30pm 10.5 5.7 -2.5 40 5.1 S 13 15 7 8 1021.4 1019.6 0.0
20/11:00pm 10.6 6.5 -2.8 39 5.2 S 9 11 5 6 1021.2 1019.4 0.0
20/10:30pm 12.4 8.4 -2.2 36 5.9 SSE 9 15 5 8 1021.2 1019.4 0.0
20/10:00pm 13.3 9.3 -2.2 34 6.3 SSE 9 13 5 7 1021.2 1019.4 0.0
20/09:30pm 14.1 9.0 -1.9 33 6.6 S 15 22 8 12 1020.9 1019.2 0.0
20/09:00pm 13.9 9.6 -1.7 34 6.4 SSE 11 15 6 8 1020.7 1019.0 0.0
20/08:30pm 14.7 10.4 -1.4 33 6.7 SSE 11 13 6 7 1020.3 1018.6 0.0
20/08:00pm 15.3 10.6 -1.7 31 7.1 S 13 17 7 9 1019.9 1018.2 0.0
20/07:30pm 16.4 11.0 -1.7 29 7.7 S 17 20 9 11 1019.6 1017.8 0.0
20/07:00pm 17.3 11.8 -1.9 27 8.2 S 17 26 9 14 1019.3 1017.5 0.0
20/06:30pm 18.0 12.3 -0.8 28 8.2 S 19 28 10 15 1018.8 1017.1 0.0
20/06:00pm 18.5 12.6 -0.8 27 8.5 S 20 30 11 16 1018.5 1016.8 0.0
20/05:30pm 18.9 12.4 0.0 28 8.5 S 24 35 13 19 1018.1 1016.4 0.0
20/05:00pm 19.1 12.6 0.2 28 8.5 SSW 24 32 13 17 1017.7 1015.9 0.0
20/04:30pm 19.0 13.6 2.4 33 7.8 SSW 20 35 11 19 1017.5 1015.7 0.0
20/04:00pm 18.5 12.5 3.2 36 7.3 SSW 24 35 13 19 1017.1 1015.3 0.0
20/03:30pm 19.3 12.2 3.5 35 7.6 S 30 43 16 23 1016.8 1015.0 0.0
20/03:00pm 19.1 12.7 3.3 35 7.6 S 26 39 14 21 1016.8 1015.0 0.0
20/02:46pm 19.1 12.3 3.3 35 7.6 SSW 28 46 15 25 1016.6 1014.9 0.0
20/02:30pm 18.9 12.2 3.5 36 7.4 S 28 43 15 23 1016.4 1014.7 0.0

Other formats

Comma delimited format used in spreadsheet applications
http://www.bom.gov.au/fwo/IDD60801/IDD60801.94462.axf

JavaScript Object Notation format (JSON) in row-major order
http://www.bom.gov.au/fwo/IDD60801/IDD60801.94462.json

Data quality

Most of these data are generated automatically and are frequently updated. Quality checks on data are not normally performed. It is possible for incorrect values to appear. Refer to information at About Latest Weather Observations and please check the disclaimer before using these data.